sensor_id;sensor_type;location;lat;lon;timestamp;temperature;humidity
41310;DHT22;27057;51.438;-0.010;2023-07-31T00:01:59;16.70;99.90
41310;DHT22;27057;51.438;-0.010;2023-07-31T00:04:32;16.70;99.90
41310;DHT22;27057;51.438;-0.010;2023-07-31T00:07:06;16.60;99.90
41310;DHT22;27057;51.438;-0.010;2023-07-31T00:09:36;16.60;99.90
41310;DHT22;27057;51.438;-0.010;2023-07-31T00:12:07;16.50;99.90
41310;DHT22;27057;51.438;-0.010;2023-07-31T00:14:35;16.80;99.90
41310;DHT22;27057;51.438;-0.010;2023-07-31T00:17:05;16.20;99.90
41310;DHT22;27057;51.438;-0.010;2023-07-31T00:19:33;16.40;99.90
41310;DHT22;27057;51.438;-0.010;2023-07-31T00:22:01;16.40;99.90
41310;DHT22;27057;51.438;-0.010;2023-07-31T00:24:28;16.40;99.90
41310;DHT22;27057;51.438;-0.010;2023-07-31T00:26:56;16.40;99.90
41310;DHT22;27057;51.438;-0.010;2023-07-31T00:29:29;16.30;99.90
41310;DHT22;27057;51.438;-0.010;2023-07-31T00:31:57;16.40;99.90
41310;DHT22;27057;51.438;-0.010;2023-07-31T00:34:26;16.40;99.90
41310;DHT22;27057;51.438;-0.010;2023-07-31T00:36:56;16.40;99.90
41310;DHT22;27057;51.438;-0.010;2023-07-31T00:39:26;16.40;99.90
41310;DHT22;27057;51.438;-0.010;2023-07-31T00:41:54;16.40;99.90
41310;DHT22;27057;51.438;-0.010;2023-07-31T00:44:25;16.40;99.90
41310;DHT22;27057;51.438;-0.010;2023-07-31T00:46:54;16.40;99.90
41310;DHT22;27057;51.438;-0.010;2023-07-31T00:49:22;16.30;99.90
41310;DHT22;27057;51.438;-0.010;2023-07-31T00:51:50;16.20;99.90
41310;DHT22;27057;51.438;-0.010;2023-07-31T00:54:18;16.40;99.90
41310;DHT22;27057;51.438;-0.010;2023-07-31T00:56:46;16.50;99.90
41310;DHT22;27057;51.438;-0.010;2023-07-31T00:59:15;16.50;99.90
41310;DHT22;27057;51.438;-0.010;2023-07-31T01:01:46;16.30;99.90
41310;DHT22;27057;51.438;-0.010;2023-07-31T01:04:13;16.50;99.90
41310;DHT22;27057;51.438;-0.010;2023-07-31T01:12:01;16.60;99.90
41310;DHT22;27057;51.438;-0.010;2023-07-31T01:14:29;16.60;99.90
41310;DHT22;27057;51.438;-0.010;2023-07-31T01:16:57;16.60;99.90
41310;DHT22;27057;51.438;-0.010;2023-07-31T01:19:26;16.60;99.90
41310;DHT22;27057;51.438;-0.010;2023-07-31T01:22:31;16.60;99.90
41310;DHT22;27057;51.438;-0.010;2023-07-31T01:28:14;16.70;99.90
41310;DHT22;27057;51.438;-0.010;2023-07-31T01:30:48;16.70;99.90
41310;DHT22;27057;51.438;-0.010;2023-07-31T01:33:16;16.70;99.90
41310;DHT22;27057;51.438;-0.010;2023-07-31T01:35:45;16.60;99.90
41310;DHT22;27057;51.438;-0.010;2023-07-31T01:38:13;16.80;99.90
41310;DHT22;27057;51.438;-0.010;2023-07-31T01:40:42;16.80;99.90
41310;DHT22;27057;51.438;-0.010;2023-07-31T01:43:09;16.80;99.90
41310;DHT22;27057;51.438;-0.010;2023-07-31T01:45:37;16.80;99.90
41310;DHT22;27057;51.438;-0.010;2023-07-31T01:48:04;16.90;99.90
41310;DHT22;27057;51.438;-0.010;2023-07-31T01:50:32;17.00;99.90
41310;DHT22;27057;51.438;-0.010;2023-07-31T01:52:59;16.90;99.90
41310;DHT22;27057;51.438;-0.010;2023-07-31T01:55:27;16.90;99.90
41310;DHT22;27057;51.438;-0.010;2023-07-31T01:57:54;16.90;99.90
41310;DHT22;27057;51.438;-0.010;2023-07-31T02:00:25;16.80;99.90
41310;DHT22;27057;51.438;-0.010;2023-07-31T02:02:53;17.00;99.90
41310;DHT22;27057;51.438;-0.010;2023-07-31T02:05:20;16.90;99.90
41310;DHT22;27057;51.438;-0.010;2023-07-31T02:07:48;17.00;99.90
41310;DHT22;27057;51.438;-0.010;2023-07-31T02:10:16;17.00;99.90
41310;DHT22;27057;51.438;-0.010;2023-07-31T02:12:43;17.00;99.90
41310;DHT22;27057;51.438;-0.010;2023-07-31T02:15:11;17.00;99.90
41310;DHT22;27057;51.438;-0.010;2023-07-31T02:17:38;17.00;99.90
41310;DHT22;27057;51.438;-0.010;2023-07-31T02:20:07;17.00;99.90
41310;DHT22;27057;51.438;-0.010;2023-07-31T02:22:34;17.00;99.90
41310;DHT22;27057;51.438;-0.010;2023-07-31T02:25:05;17.10;99.90
41310;DHT22;27057;51.438;-0.010;2023-07-31T02:27:33;17.10;99.90
41310;DHT22;27057;51.438;-0.010;2023-07-31T02:30:01;17.10;99.90
41310;DHT22;27057;51.438;-0.010;2023-07-31T02:32:28;17.10;99.90
41310;DHT22;27057;51.438;-0.010;2023-07-31T02:34:56;17.10;99.90
41310;DHT22;27057;51.438;-0.010;2023-07-31T02:37:25;17.60;99.90
41310;DHT22;27057;51.438;-0.010;2023-07-31T02:39:53;17.20;99.90
41310;DHT22;27057;51.438;-0.010;2023-07-31T02:42:20;17.20;99.90
41310;DHT22;27057;51.438;-0.010;2023-07-31T02:44:48;17.30;99.90
41310;DHT22;27057;51.438;-0.010;2023-07-31T02:47:18;17.30;99.90
41310;DHT22;27057;51.438;-0.010;2023-07-31T02:49:48;17.30;99.90
41310;DHT22;27057;51.438;-0.010;2023-07-31T02:52:17;17.20;99.90
41310;DHT22;27057;51.438;-0.010;2023-07-31T02:54:47;17.10;99.90
41310;DHT22;27057;51.438;-0.010;2023-07-31T02:57:14;17.20;99.90
41310;DHT22;27057;51.438;-0.010;2023-07-31T02:59:43;17.10;99.90
41310;DHT22;27057;51.438;-0.010;2023-07-31T03:02:11;17.10;99.90
41310;DHT22;27057;51.438;-0.010;2023-07-31T03:04:40;17.10;99.90
41310;DHT22;27057;51.438;-0.010;2023-07-31T03:07:07;17.10;99.90
41310;DHT22;27057;51.438;-0.010;2023-07-31T03:09:39;17.10;99.90
41310;DHT22;27057;51.438;-0.010;2023-07-31T03:12:09;17.10;99.90
41310;DHT22;27057;51.438;-0.010;2023-07-31T03:14:36;17.10;99.90
41310;DHT22;27057;51.438;-0.010;2023-07-31T03:17:04;17.20;99.90
41310;DHT22;27057;51.438;-0.010;2023-07-31T03:19:32;17.20;99.90
41310;DHT22;27057;51.438;-0.010;2023-07-31T03:22:03;17.20;99.90
41310;DHT22;27057;51.438;-0.010;2023-07-31T03:24:30;17.30;99.90
41310;DHT22;27057;51.438;-0.010;2023-07-31T03:26:58;17.30;99.90
41310;DHT22;27057;51.438;-0.010;2023-07-31T03:29:29;17.30;99.90
41310;DHT22;27057;51.438;-0.010;2023-07-31T03:31:57;17.10;99.90
41310;DHT22;27057;51.438;-0.010;2023-07-31T03:34:28;17.40;99.90
41310;DHT22;27057;51.438;-0.010;2023-07-31T03:36:56;17.40;99.90
41310;DHT22;27057;51.438;-0.010;2023-07-31T03:39:23;17.50;99.90
41310;DHT22;27057;51.438;-0.010;2023-07-31T03:41:51;17.50;99.90
41310;DHT22;27057;51.438;-0.010;2023-07-31T03:44:29;17.50;99.90
41310;DHT22;27057;51.438;-0.010;2023-07-31T03:46:56;17.50;99.90
41310;DHT22;27057;51.438;-0.010;2023-07-31T03:49:24;17.50;99.90
41310;DHT22;27057;51.438;-0.010;2023-07-31T03:51:54;17.50;99.90
41310;DHT22;27057;51.438;-0.010;2023-07-31T03:54:22;17.50;99.90
41310;DHT22;27057;51.438;-0.010;2023-07-31T03:56:50;17.60;99.90
41310;DHT22;27057;51.438;-0.010;2023-07-31T03:59:17;17.60;99.90
41310;DHT22;27057;51.438;-0.010;2023-07-31T04:01:45;17.30;99.90
41310;DHT22;27057;51.438;-0.010;2023-07-31T04:04:12;17.60;99.90
41310;DHT22;27057;51.438;-0.010;2023-07-31T04:06:43;17.60;99.90
41310;DHT22;27057;51.438;-0.010;2023-07-31T04:09:10;17.60;99.90
41310;DHT22;27057;51.438;-0.010;2023-07-31T04:11:38;17.70;99.90
41310;DHT22;27057;51.438;-0.010;2023-07-31T04:14:07;17.60;99.90
41310;DHT22;27057;51.438;-0.010;2023-07-31T04:16:35;17.70;99.90
41310;DHT22;27057;51.438;-0.010;2023-07-31T04:19:03;17.60;99.90
41310;DHT22;27057;51.438;-0.010;2023-07-31T04:21:31;17.70;99.90
41310;DHT22;27057;51.438;-0.010;2023-07-31T04:23:58;17.70;99.90
41310;DHT22;27057;51.438;-0.010;2023-07-31T04:26:26;17.70;99.90
41310;DHT22;27057;51.438;-0.010;2023-07-31T04:28:54;17.70;99.90
41310;DHT22;27057;51.438;-0.010;2023-07-31T04:31:21;17.70;99.90
41310;DHT22;27057;51.438;-0.010;2023-07-31T04:33:49;17.70;99.90
41310;DHT22;27057;51.438;-0.010;2023-07-31T04:36:16;17.80;99.90
41310;DHT22;27057;51.438;-0.010;2023-07-31T04:38:43;17.80;99.90
41310;DHT22;27057;51.438;-0.010;2023-07-31T04:41:14;17.80;99.90
41310;DHT22;27057;51.438;-0.010;2023-07-31T04:43:41;17.80;99.90
41310;DHT22;27057;51.438;-0.010;2023-07-31T04:46:12;17.80;99.90
41310;DHT22;27057;51.438;-0.010;2023-07-31T04:48:39;17.80;99.90
41310;DHT22;27057;51.438;-0.010;2023-07-31T04:51:07;17.80;99.90
41310;DHT22;27057;51.438;-0.010;2023-07-31T04:53:35;17.80;99.90
41310;DHT22;27057;51.438;-0.010;2023-07-31T04:56:03;17.80;99.90
41310;DHT22;27057;51.438;-0.010;2023-07-31T04:58:30;17.80;99.90
41310;DHT22;27057;51.438;-0.010;2023-07-31T05:00:58;17.90;99.90
41310;DHT22;27057;51.438;-0.010;2023-07-31T05:03:25;17.90;99.90
41310;DHT22;27057;51.438;-0.010;2023-07-31T05:05:53;17.90;99.90
41310;DHT22;27057;51.438;-0.010;2023-07-31T05:08:20;17.80;99.90
41310;DHT22;27057;51.438;-0.010;2023-07-31T05:10:48;17.80;99.90
41310;DHT22;27057;51.438;-0.010;2023-07-31T05:13:18;17.80;99.90
41310;DHT22;27057;51.438;-0.010;2023-07-31T05:15:46;17.80;99.90
41310;DHT22;27057;51.438;-0.010;2023-07-31T05:18:13;17.80;99.90
41310;DHT22;27057;51.438;-0.010;2023-07-31T05:20:41;17.80;99.90
41310;DHT22;27057;51.438;-0.010;2023-07-31T05:23:08;17.80;99.90
41310;DHT22;27057;51.438;-0.010;2023-07-31T05:25:36;17.80;99.90
41310;DHT22;27057;51.438;-0.010;2023-07-31T05:28:07;17.90;99.90
41310;DHT22;27057;51.438;-0.010;2023-07-31T05:30:34;17.90;99.90
41310;DHT22;27057;51.438;-0.010;2023-07-31T05:33:11;18.00;99.90
41310;DHT22;27057;51.438;-0.010;2023-07-31T05:35:41;18.00;99.90
41310;DHT22;27057;51.438;-0.010;2023-07-31T05:38:09;18.10;99.90
41310;DHT22;27057;51.438;-0.010;2023-07-31T05:40:39;18.10;99.90
41310;DHT22;27057;51.438;-0.010;2023-07-31T05:43:07;18.10;99.90
41310;DHT22;27057;51.438;-0.010;2023-07-31T05:45:35;18.10;99.90
41310;DHT22;27057;51.438;-0.010;2023-07-31T05:48:04;18.20;99.90
41310;DHT22;27057;51.438;-0.010;2023-07-31T05:50:32;18.20;99.90
41310;DHT22;27057;51.438;-0.010;2023-07-31T05:52:59;18.20;99.90
41310;DHT22;27057;51.438;-0.010;2023-07-31T05:55:27;18.30;99.90
41310;DHT22;27057;51.438;-0.010;2023-07-31T05:57:55;18.30;99.90
41310;DHT22;27057;51.438;-0.010;2023-07-31T06:00:22;18.30;99.90
41310;DHT22;27057;51.438;-0.010;2023-07-31T06:02:50;18.30;99.90
41310;DHT22;27057;51.438;-0.010;2023-07-31T06:05:17;18.30;99.90
41310;DHT22;27057;51.438;-0.010;2023-07-31T06:07:45;18.40;99.90
41310;DHT22;27057;51.438;-0.010;2023-07-31T06:10:21;18.40;99.90
41310;DHT22;27057;51.438;-0.010;2023-07-31T06:12:49;18.40;99.90
41310;DHT22;27057;51.438;-0.010;2023-07-31T06:15:17;18.50;99.90
41310;DHT22;27057;51.438;-0.010;2023-07-31T06:17:46;18.50;99.90
41310;DHT22;27057;51.438;-0.010;2023-07-31T06:20:14;18.50;99.90
41310;DHT22;27057;51.438;-0.010;2023-07-31T06:22:47;18.60;99.90
41310;DHT22;27057;51.438;-0.010;2023-07-31T06:25:15;18.60;99.90
41310;DHT22;27057;51.438;-0.010;2023-07-31T06:27:42;18.60;99.90
41310;DHT22;27057;51.438;-0.010;2023-07-31T06:30:10;18.70;99.90
41310;DHT22;27057;51.438;-0.010;2023-07-31T06:32:38;18.70;99.90
41310;DHT22;27057;51.438;-0.010;2023-07-31T06:35:06;18.70;99.90
41310;DHT22;27057;51.438;-0.010;2023-07-31T06:37:33;18.80;99.90
41310;DHT22;27057;51.438;-0.010;2023-07-31T06:40:04;18.80;99.90
41310;DHT22;27057;51.438;-0.010;2023-07-31T06:42:33;18.90;99.90
41310;DHT22;27057;51.438;-0.010;2023-07-31T06:45:01;18.90;99.90
41310;DHT22;27057;51.438;-0.010;2023-07-31T06:47:28;19.00;99.90
41310;DHT22;27057;51.438;-0.010;2023-07-31T06:49:56;19.00;99.90
41310;DHT22;27057;51.438;-0.010;2023-07-31T06:52:26;19.00;99.90
41310;DHT22;27057;51.438;-0.010;2023-07-31T06:55:19;19.00;99.90
41310;DHT22;27057;51.438;-0.010;2023-07-31T06:57:51;19.00;99.90
41310;DHT22;27057;51.438;-0.010;2023-07-31T07:00:20;19.00;99.90
41310;DHT22;27057;51.438;-0.010;2023-07-31T07:02:48;19.10;99.90
41310;DHT22;27057;51.438;-0.010;2023-07-31T07:05:17;19.10;99.90
41310;DHT22;27057;51.438;-0.010;2023-07-31T07:07:45;19.10;99.90
41310;DHT22;27057;51.438;-0.010;2023-07-31T07:10:13;19.10;99.90
41310;DHT22;27057;51.438;-0.010;2023-07-31T07:12:40;19.10;99.90
41310;DHT22;27057;51.438;-0.010;2023-07-31T07:15:08;19.10;99.90
41310;DHT22;27057;51.438;-0.010;2023-07-31T07:17:36;19.10;99.90
41310;DHT22;27057;51.438;-0.010;2023-07-31T07:20:04;19.20;99.90
41310;DHT22;27057;51.438;-0.010;2023-07-31T07:22:32;19.20;99.90
41310;DHT22;27057;51.438;-0.010;2023-07-31T07:24:59;19.20;99.90
41310;DHT22;27057;51.438;-0.010;2023-07-31T07:27:27;19.20;99.90
41310;DHT22;27057;51.438;-0.010;2023-07-31T07:29:54;19.30;99.90
41310;DHT22;27057;51.438;-0.010;2023-07-31T07:32:22;19.10;99.90
41310;DHT22;27057;51.438;-0.010;2023-07-31T07:34:49;19.20;99.90
41310;DHT22;27057;51.438;-0.010;2023-07-31T07:37:17;19.30;99.90
41310;DHT22;27057;51.438;-0.010;2023-07-31T07:39:44;19.30;99.90
41310;DHT22;27057;51.438;-0.010;2023-07-31T07:42:12;19.30;99.90
41310;DHT22;27057;51.438;-0.010;2023-07-31T07:44:39;19.30;99.90
41310;DHT22;27057;51.438;-0.010;2023-07-31T07:47:07;19.40;99.90
41310;DHT22;27057;51.438;-0.010;2023-07-31T07:49:35;19.30;99.90
41310;DHT22;27057;51.438;-0.010;2023-07-31T07:52:03;19.30;99.90
41310;DHT22;27057;51.438;-0.010;2023-07-31T07:54:31;19.40;99.90
41310;DHT22;27057;51.438;-0.010;2023-07-31T07:57:00;19.40;99.90
41310;DHT22;27057;51.438;-0.010;2023-07-31T07:59:27;19.40;99.90
41310;DHT22;27057;51.438;-0.010;2023-07-31T08:01:54;19.50;99.90
41310;DHT22;27057;51.438;-0.010;2023-07-31T08:04:22;19.50;99.90
41310;DHT22;27057;51.438;-0.010;2023-07-31T08:06:49;19.60;99.90
41310;DHT22;27057;51.438;-0.010;2023-07-31T08:09:17;19.60;99.90
41310;DHT22;27057;51.438;-0.010;2023-07-31T08:11:44;19.80;99.90
41310;DHT22;27057;51.438;-0.010;2023-07-31T08:14:11;19.70;99.90
41310;DHT22;27057;51.438;-0.010;2023-07-31T08:16:39;19.80;99.90
41310;DHT22;27057;51.438;-0.010;2023-07-31T08:19:07;19.80;99.90
41310;DHT22;27057;51.438;-0.010;2023-07-31T08:21:34;19.90;99.90
41310;DHT22;27057;51.438;-0.010;2023-07-31T08:24:02;19.80;99.90
41310;DHT22;27057;51.438;-0.010;2023-07-31T08:26:29;19.80;99.90
41310;DHT22;27057;51.438;-0.010;2023-07-31T08:28:57;19.70;99.90
41310;DHT22;27057;51.438;-0.010;2023-07-31T08:31:24;19.60;99.90
41310;DHT22;27057;51.438;-0.010;2023-07-31T08:33:52;19.70;99.90
41310;DHT22;27057;51.438;-0.010;2023-07-31T08:36:20;19.70;99.90
41310;DHT22;27057;51.438;-0.010;2023-07-31T08:38:47;19.90;99.90
41310;DHT22;27057;51.438;-0.010;2023-07-31T08:41:15;20.00;99.90
41310;DHT22;27057;51.438;-0.010;2023-07-31T08:43:46;20.10;99.90
41310;DHT22;27057;51.438;-0.010;2023-07-31T08:46:13;20.10;99.90
41310;DHT22;27057;51.438;-0.010;2023-07-31T08:48:44;20.10;99.90
41310;DHT22;27057;51.438;-0.010;2023-07-31T08:51:14;20.20;99.90
41310;DHT22;27057;51.438;-0.010;2023-07-31T08:53:41;20.20;99.90
41310;DHT22;27057;51.438;-0.010;2023-07-31T08:56:10;20.20;99.90
41310;DHT22;27057;51.438;-0.010;2023-07-31T08:58:39;20.20;99.90
41310;DHT22;27057;51.438;-0.010;2023-07-31T09:01:07;20.30;99.90
41310;DHT22;27057;51.438;-0.010;2023-07-31T09:03:35;20.20;99.90
41310;DHT22;27057;51.438;-0.010;2023-07-31T09:06:04;20.20;99.90
41310;DHT22;27057;51.438;-0.010;2023-07-31T09:08:33;20.30;99.90
41310;DHT22;27057;51.438;-0.010;2023-07-31T09:11:02;20.30;99.90
41310;DHT22;27057;51.438;-0.010;2023-07-31T09:13:33;20.30;99.90
41310;DHT22;27057;51.438;-0.010;2023-07-31T09:16:00;20.30;99.90
41310;DHT22;27057;51.438;-0.010;2023-07-31T09:18:28;20.30;99.90
41310;DHT22;27057;51.438;-0.010;2023-07-31T09:21:05;20.30;99.90
41310;DHT22;27057;51.438;-0.010;2023-07-31T09:23:44;20.40;99.90
41310;DHT22;27057;51.438;-0.010;2023-07-31T09:26:13;20.40;99.90
41310;DHT22;27057;51.438;-0.010;2023-07-31T09:28:55;20.50;99.90
41310;DHT22;27057;51.438;-0.010;2023-07-31T09:31:39;20.50;99.90
41310;DHT22;27057;51.438;-0.010;2023-07-31T09:34:08;20.50;99.90
41310;DHT22;27057;51.438;-0.010;2023-07-31T09:36:46;20.50;99.90
41310;DHT22;27057;51.438;-0.010;2023-07-31T09:39:15;20.50;99.90
41310;DHT22;27057;51.438;-0.010;2023-07-31T09:41:57;20.40;99.90
41310;DHT22;27057;51.438;-0.010;2023-07-31T09:44:40;20.50;99.90
41310;DHT22;27057;51.438;-0.010;2023-07-31T09:47:22;20.50;99.90
41310;DHT22;27057;51.438;-0.010;2023-07-31T09:49:52;20.40;99.90
41310;DHT22;27057;51.438;-0.010;2023-07-31T09:52:20;20.30;99.90
41310;DHT22;27057;51.438;-0.010;2023-07-31T09:54:47;20.30;99.90
41310;DHT22;27057;51.438;-0.010;2023-07-31T09:57:17;20.60;99.90
41310;DHT22;27057;51.438;-0.010;2023-07-31T09:59:46;20.40;99.90
41310;DHT22;27057;51.438;-0.010;2023-07-31T10:02:17;20.50;99.90
41310;DHT22;27057;51.438;-0.010;2023-07-31T10:04:50;20.60;99.90
41310;DHT22;27057;51.438;-0.010;2023-07-31T10:07:18;20.90;99.90
41310;DHT22;27057;51.438;-0.010;2023-07-31T10:09:48;21.00;99.90
41310;DHT22;27057;51.438;-0.010;2023-07-31T10:12:18;21.10;99.90
41310;DHT22;27057;51.438;-0.010;2023-07-31T10:14:46;21.10;99.90
41310;DHT22;27057;51.438;-0.010;2023-07-31T10:17:14;21.00;99.90
41310;DHT22;27057;51.438;-0.010;2023-07-31T10:19:42;21.10;99.90
41310;DHT22;27057;51.438;-0.010;2023-07-31T10:22:10;21.00;99.90
41310;DHT22;27057;51.438;-0.010;2023-07-31T10:24:40;21.00;99.90
41310;DHT22;27057;51.438;-0.010;2023-07-31T10:27:10;20.80;99.90
41310;DHT22;27057;51.438;-0.010;2023-07-31T10:29:38;20.70;99.90
41310;DHT22;27057;51.438;-0.010;2023-07-31T10:32:08;20.70;99.90
41310;DHT22;27057;51.438;-0.010;2023-07-31T10:34:39;20.70;99.90
41310;DHT22;27057;51.438;-0.010;2023-07-31T10:37:39;20.70;99.90
41310;DHT22;27057;51.438;-0.010;2023-07-31T10:40:15;20.90;99.90
41310;DHT22;27057;51.438;-0.010;2023-07-31T10:42:48;21.10;99.90
41310;DHT22;27057;51.438;-0.010;2023-07-31T10:45:36;21.20;99.90
41310;DHT22;27057;51.438;-0.010;2023-07-31T10:48:13;21.40;99.90
41310;DHT22;27057;51.438;-0.010;2023-07-31T10:50:49;21.50;99.90
41310;DHT22;27057;51.438;-0.010;2023-07-31T10:53:29;21.60;99.90
41310;DHT22;27057;51.438;-0.010;2023-07-31T10:55:59;21.90;99.90
41310;DHT22;27057;51.438;-0.010;2023-07-31T10:58:26;21.80;99.90
41310;DHT22;27057;51.438;-0.010;2023-07-31T11:00:58;21.80;99.90
41310;DHT22;27057;51.438;-0.010;2023-07-31T11:03:40;21.60;99.90
41310;DHT22;27057;51.438;-0.010;2023-07-31T11:06:08;21.50;99.90
41310;DHT22;27057;51.438;-0.010;2023-07-31T11:08:44;21.30;99.90
41310;DHT22;27057;51.438;-0.010;2023-07-31T11:11:14;21.20;99.90
41310;DHT22;27057;51.438;-0.010;2023-07-31T11:13:47;21.10;99.90
41310;DHT22;27057;51.438;-0.010;2023-07-31T11:16:19;21.00;99.90
41310;DHT22;27057;51.438;-0.010;2023-07-31T11:18:48;20.70;99.90
41310;DHT22;27057;51.438;-0.010;2023-07-31T11:21:19;20.80;99.90
41310;DHT22;27057;51.438;-0.010;2023-07-31T11:23:48;20.70;99.90
41310;DHT22;27057;51.438;-0.010;2023-07-31T11:26:17;20.70;99.90
41310;DHT22;27057;51.438;-0.010;2023-07-31T11:28:48;20.70;99.90
41310;DHT22;27057;51.438;-0.010;2023-07-31T11:31:17;20.80;99.90
41310;DHT22;27057;51.438;-0.010;2023-07-31T11:33:45;21.00;99.90
41310;DHT22;27057;51.438;-0.010;2023-07-31T11:36:20;21.30;99.90
41310;DHT22;27057;51.438;-0.010;2023-07-31T11:38:47;21.40;99.90
41310;DHT22;27057;51.438;-0.010;2023-07-31T11:41:16;21.50;99.90
41310;DHT22;27057;51.438;-0.010;2023-07-31T11:43:46;21.40;99.90
41310;DHT22;27057;51.438;-0.010;2023-07-31T11:46:14;21.40;99.90
41310;DHT22;27057;51.438;-0.010;2023-07-31T11:48:42;21.30;99.90
41310;DHT22;27057;51.438;-0.010;2023-07-31T11:51:12;21.30;99.90
41310;DHT22;27057;51.438;-0.010;2023-07-31T11:54:10;21.30;99.90
41310;DHT22;27057;51.438;-0.010;2023-07-31T11:56:40;21.40;99.90
41310;DHT22;27057;51.438;-0.010;2023-07-31T11:59:07;21.30;99.90
41310;DHT22;27057;51.438;-0.010;2023-07-31T12:01:36;21.20;99.90
41310;DHT22;27057;51.438;-0.010;2023-07-31T12:04:03;21.30;99.90
41310;DHT22;27057;51.438;-0.010;2023-07-31T12:06:35;21.30;99.90
41310;DHT22;27057;51.438;-0.010;2023-07-31T12:09:04;21.40;99.90
41310;DHT22;27057;51.438;-0.010;2023-07-31T12:11:44;21.40;99.90
41310;DHT22;27057;51.438;-0.010;2023-07-31T12:14:25;21.30;99.90
41310;DHT22;27057;51.438;-0.010;2023-07-31T12:16:54;21.30;99.90
41310;DHT22;27057;51.438;-0.010;2023-07-31T12:19:24;21.20;99.90
41310;DHT22;27057;51.438;-0.010;2023-07-31T12:22:17;21.10;99.90
41310;DHT22;27057;51.438;-0.010;2023-07-31T12:24:44;20.90;99.90
41310;DHT22;27057;51.438;-0.010;2023-07-31T12:27:14;20.70;99.90
41310;DHT22;27057;51.438;-0.010;2023-07-31T12:29:42;20.50;99.90
41310;DHT22;27057;51.438;-0.010;2023-07-31T12:32:23;20.50;99.90
41310;DHT22;27057;51.438;-0.010;2023-07-31T12:34:52;20.40;99.90
41310;DHT22;27057;51.438;-0.010;2023-07-31T12:37:21;20.30;99.90
41310;DHT22;27057;51.438;-0.010;2023-07-31T12:39:49;20.30;99.90
41310;DHT22;27057;51.438;-0.010;2023-07-31T12:42:17;20.30;99.90
41310;DHT22;27057;51.438;-0.010;2023-07-31T12:44:45;20.40;99.90
41310;DHT22;27057;51.438;-0.010;2023-07-31T12:47:13;20.40;99.90
41310;DHT22;27057;51.438;-0.010;2023-07-31T12:49:42;20.40;99.90
41310;DHT22;27057;51.438;-0.010;2023-07-31T12:52:09;20.40;99.90
41310;DHT22;27057;51.438;-0.010;2023-07-31T12:54:37;20.30;99.90
41310;DHT22;27057;51.438;-0.010;2023-07-31T12:57:04;20.30;99.90
41310;DHT22;27057;51.438;-0.010;2023-07-31T12:59:31;20.20;99.90
41310;DHT22;27057;51.438;-0.010;2023-07-31T13:01:59;20.10;99.90
41310;DHT22;27057;51.438;-0.010;2023-07-31T13:04:26;20.10;99.90
41310;DHT22;27057;51.438;-0.010;2023-07-31T13:06:54;20.00;99.90
41310;DHT22;27057;51.438;-0.010;2023-07-31T13:09:25;20.00;99.90
41310;DHT22;27057;51.438;-0.010;2023-07-31T13:11:53;19.90;99.90
41310;DHT22;27057;51.438;-0.010;2023-07-31T13:14:20;19.80;99.90
41310;DHT22;27057;51.438;-0.010;2023-07-31T13:16:53;19.20;99.90
41310;DHT22;27057;51.438;-0.010;2023-07-31T13:19:21;19.40;99.90
41310;DHT22;27057;51.438;-0.010;2023-07-31T13:21:49;19.10;99.90
41310;DHT22;27057;51.438;-0.010;2023-07-31T13:24:20;18.90;99.90
41310;DHT22;27057;51.438;-0.010;2023-07-31T13:26:50;18.60;99.90
41310;DHT22;27057;51.438;-0.010;2023-07-31T13:29:17;18.40;99.90
41310;DHT22;27057;51.438;-0.010;2023-07-31T13:31:48;18.30;99.90
41310;DHT22;27057;51.438;-0.010;2023-07-31T13:34:16;18.20;99.90
41310;DHT22;27057;51.438;-0.010;2023-07-31T13:36:43;18.00;99.90
41310;DHT22;27057;51.438;-0.010;2023-07-31T13:39:11;17.90;99.90
41310;DHT22;27057;51.438;-0.010;2023-07-31T13:41:39;17.90;99.90
41310;DHT22;27057;51.438;-0.010;2023-07-31T13:44:07;17.80;99.90
41310;DHT22;27057;51.438;-0.010;2023-07-31T13:46:34;17.60;99.90
41310;DHT22;27057;51.438;-0.010;2023-07-31T13:49:02;17.60;99.90
41310;DHT22;27057;51.438;-0.010;2023-07-31T13:51:29;17.60;99.90
41310;DHT22;27057;51.438;-0.010;2023-07-31T13:53:57;17.50;99.90
41310;DHT22;27057;51.438;-0.010;2023-07-31T13:56:29;17.50;99.90
41310;DHT22;27057;51.438;-0.010;2023-07-31T13:58:56;17.40;99.90
41310;DHT22;27057;51.438;-0.010;2023-07-31T14:01:26;17.30;99.90
41310;DHT22;27057;51.438;-0.010;2023-07-31T14:03:56;17.30;99.90
41310;DHT22;27057;51.438;-0.010;2023-07-31T14:06:24;17.20;99.90
41310;DHT22;27057;51.438;-0.010;2023-07-31T14:08:56;17.20;99.90
41310;DHT22;27057;51.438;-0.010;2023-07-31T14:11:23;17.00;99.90
41310;DHT22;27057;51.438;-0.010;2023-07-31T14:13:51;17.00;99.90
41310;DHT22;27057;51.438;-0.010;2023-07-31T14:16:19;16.90;99.90
41310;DHT22;27057;51.438;-0.010;2023-07-31T14:18:47;16.90;99.90
41310;DHT22;27057;51.438;-0.010;2023-07-31T14:21:17;16.90;99.90
41310;DHT22;27057;51.438;-0.010;2023-07-31T14:23:46;17.00;99.90
41310;DHT22;27057;51.438;-0.010;2023-07-31T14:26:17;16.90;99.90
41310;DHT22;27057;51.438;-0.010;2023-07-31T14:28:45;16.90;99.90
41310;DHT22;27057;51.438;-0.010;2023-07-31T14:31:12;16.90;99.90
41310;DHT22;27057;51.438;-0.010;2023-07-31T14:33:40;16.80;99.90
41310;DHT22;27057;51.438;-0.010;2023-07-31T14:36:08;16.80;99.90
41310;DHT22;27057;51.438;-0.010;2023-07-31T14:38:35;16.90;99.90
41310;DHT22;27057;51.438;-0.010;2023-07-31T14:41:06;16.90;99.90
41310;DHT22;27057;51.438;-0.010;2023-07-31T14:43:33;16.90;99.90
41310;DHT22;27057;51.438;-0.010;2023-07-31T14:46:01;17.00;99.90
41310;DHT22;27057;51.438;-0.010;2023-07-31T14:48:29;17.10;99.90
41310;DHT22;27057;51.438;-0.010;2023-07-31T14:50:56;17.30;99.90
41310;DHT22;27057;51.438;-0.010;2023-07-31T14:53:24;17.20;99.90
41310;DHT22;27057;51.438;-0.010;2023-07-31T14:55:52;17.20;99.90
41310;DHT22;27057;51.438;-0.010;2023-07-31T14:58:19;17.20;99.90
41310;DHT22;27057;51.438;-0.010;2023-07-31T15:00:47;17.30;99.90
41310;DHT22;27057;51.438;-0.010;2023-07-31T15:03:20;17.50;99.90
41310;DHT22;27057;51.438;-0.010;2023-07-31T15:05:48;17.40;99.90
41310;DHT22;27057;51.438;-0.010;2023-07-31T15:08:16;17.50;99.90
41310;DHT22;27057;51.438;-0.010;2023-07-31T15:10:43;17.60;99.90
41310;DHT22;27057;51.438;-0.010;2023-07-31T15:13:11;17.80;99.90
41310;DHT22;27057;51.438;-0.010;2023-07-31T15:15:38;18.20;99.90
41310;DHT22;27057;51.438;-0.010;2023-07-31T15:18:06;18.20;99.90
41310;DHT22;27057;51.438;-0.010;2023-07-31T15:20:33;18.20;99.90
41310;DHT22;27057;51.438;-0.010;2023-07-31T15:23:03;18.40;99.90
41310;DHT22;27057;51.438;-0.010;2023-07-31T15:25:34;18.60;99.90
41310;DHT22;27057;51.438;-0.010;2023-07-31T15:28:02;18.70;99.90
41310;DHT22;27057;51.438;-0.010;2023-07-31T15:30:29;18.70;99.90
41310;DHT22;27057;51.438;-0.010;2023-07-31T15:32:59;18.60;99.90
41310;DHT22;27057;51.438;-0.010;2023-07-31T15:35:27;18.60;99.90
41310;DHT22;27057;51.438;-0.010;2023-07-31T15:37:54;18.60;99.90